createdAt,value
2023-07-31T00:00:03.464Z,100041.52
2023-07-31T00:02:16.561Z,100042.98
2023-07-31T00:04:29.177Z,100042.08
2023-07-31T00:06:42.251Z,100043.75
2023-07-31T00:08:55.341Z,100045.10
2023-07-31T00:11:08.024Z,100044.34
2023-07-31T00:13:20.782Z,100045.36
2023-07-31T00:15:33.387Z,100043.35
2023-07-31T00:17:46.144Z,100043.54
2023-07-31T00:19:58.780Z,100041.96
2023-07-31T00:22:11.364Z,100043.27
2023-07-31T00:24:23.977Z,100046.67
2023-07-31T00:26:36.630Z,100045.45
2023-07-31T00:28:49.388Z,100041.77
2023-07-31T00:31:03.217Z,100042.55
2023-07-31T00:33:15.839Z,100044.46
2023-07-31T00:35:28.430Z,100041.63
2023-07-31T00:37:41.049Z,100044.25
2023-07-31T00:39:53.644Z,100044.34
2023-07-31T00:42:06.568Z,100045.73
2023-07-31T00:44:19.220Z,100051.34
2023-07-31T00:46:31.857Z,100055.62
2023-07-31T00:48:44.839Z,100054.66
2023-07-31T00:50:57.527Z,100054.14
2023-07-31T00:53:10.144Z,100051.80
2023-07-31T00:55:23.194Z,100050.38
2023-07-31T00:57:37.703Z,100053.13
2023-07-31T00:59:50.426Z,100059.31
2023-07-31T01:02:04.015Z,100052.66
2023-07-31T01:04:18.284Z,100048.05
2023-07-31T01:06:56.162Z,100046.02
2023-07-31T01:09:33.269Z,100046.65
2023-07-31T01:11:55.921Z,100048.74
2023-07-31T01:14:08.546Z,100048.45
2023-07-31T01:16:21.269Z,100050.89
2023-07-31T01:18:34.001Z,100046.80
2023-07-31T01:20:54.656Z,100048.59
2023-07-31T01:23:32.959Z,100049.90
2023-07-31T01:25:51.713Z,100049.55
2023-07-31T01:28:21.739Z,100048.38
2023-07-31T01:30:38.805Z,100049.45
2023-07-31T01:32:54.095Z,100053.48
2023-07-31T01:35:07.438Z,100057.38
2023-07-31T01:37:20.152Z,100052.77
2023-07-31T01:39:32.836Z,100054.36
2023-07-31T01:41:45.458Z,100048.15
2023-07-31T01:43:58.340Z,100047.98
2023-07-31T01:46:11.042Z,100047.16
2023-07-31T01:48:23.747Z,100050.93
2023-07-31T01:50:36.350Z,100048.05
2023-07-31T01:52:49.023Z,100047.84
2023-07-31T01:55:01.793Z,100052.15
2023-07-31T01:57:14.520Z,100055.15
2023-07-31T01:59:27.161Z,100048.45
2023-07-31T02:01:39.831Z,100048.24
2023-07-31T02:03:52.610Z,100046.30
2023-07-31T02:06:05.285Z,100047.36
2023-07-31T02:08:18.187Z,100047.59
2023-07-31T02:10:30.866Z,100040.82
2023-07-31T02:12:43.456Z,100043.59
2023-07-31T02:14:56.087Z,100044.64
2023-07-31T02:17:08.760Z,100046.28
2023-07-31T02:19:21.462Z,100044.55
2023-07-31T02:21:34.094Z,100044.29
2023-07-31T02:23:46.742Z,100043.02
2023-07-31T02:25:59.478Z,100047.87
2023-07-31T02:28:12.453Z,100044.20
2023-07-31T02:30:25.139Z,100047.35
2023-07-31T02:32:37.842Z,100045.49
2023-07-31T02:34:50.598Z,100043.08
2023-07-31T02:37:03.348Z,100042.93
2023-07-31T02:39:16.007Z,100041.02
2023-07-31T02:41:28.873Z,100036.58
2023-07-31T02:43:41.837Z,100038.46
2023-07-31T02:45:54.858Z,100040.17
2023-07-31T02:48:07.552Z,100043.26
2023-07-31T02:50:20.177Z,100038.44
2023-07-31T02:52:32.733Z,100039.31
2023-07-31T02:54:45.600Z,100040.73
2023-07-31T02:56:58.340Z,100036.59
2023-07-31T02:59:13.303Z,100041.77
2023-07-31T03:01:25.994Z,100041.65
2023-07-31T03:03:38.716Z,100041.17
2023-07-31T03:05:51.485Z,100043.11
2023-07-31T03:08:05.540Z,100043.59
2023-07-31T03:10:18.291Z,100043.31
2023-07-31T03:12:30.883Z,100045.75
2023-07-31T03:14:43.548Z,100042.49
2023-07-31T03:16:56.152Z,100041.59
2023-07-31T03:19:08.880Z,100040.20
2023-07-31T03:21:21.505Z,100039.26
2023-07-31T03:23:34.130Z,100040.82
2023-07-31T03:25:57.762Z,100040.77
2023-07-31T03:28:10.445Z,100042.58
2023-07-31T03:30:23.079Z,100044.68
2023-07-31T03:32:35.713Z,100039.70
2023-07-31T03:34:48.354Z,100041.88
2023-07-31T03:37:00.973Z,100043.23
2023-07-31T03:39:13.693Z,100050.23
2023-07-31T03:41:26.323Z,100050.61
2023-07-31T03:43:39.172Z,100049.00
2023-07-31T03:45:51.938Z,100048.89
2023-07-31T03:48:05.505Z,100049.38
2023-07-31T03:50:18.487Z,100051.83
2023-07-31T03:52:31.161Z,100043.86
2023-07-31T03:54:45.621Z,100036.65
2023-07-31T03:56:58.303Z,100043.80
2023-07-31T03:59:10.915Z,100037.85
2023-07-31T04:01:23.749Z,100039.17
2023-07-31T04:03:36.535Z,100035.39
2023-07-31T04:05:49.364Z,100032.70
2023-07-31T04:08:02.040Z,100035.16
2023-07-31T04:10:14.771Z,100036.62
2023-07-31T04:12:27.628Z,100037.58
2023-07-31T04:14:40.411Z,100033.13
2023-07-31T04:16:53.591Z,100035.27
2023-07-31T04:19:06.350Z,100036.08
2023-07-31T04:21:19.053Z,100037.95
2023-07-31T04:23:31.901Z,100037.41
2023-07-31T04:25:44.561Z,100037.05
2023-07-31T04:27:57.300Z,100035.07
2023-07-31T04:30:10.194Z,100036.23
2023-07-31T04:32:22.849Z,100035.41
2023-07-31T04:34:35.522Z,100037.64
2023-07-31T04:36:48.140Z,100040.48
2023-07-31T04:39:00.993Z,100040.21
2023-07-31T04:41:13.636Z,100043.59
2023-07-31T04:43:26.318Z,100043.88
2023-07-31T04:45:39.146Z,100041.13
2023-07-31T04:47:51.857Z,100039.84
2023-07-31T04:50:04.767Z,100038.69
2023-07-31T04:52:17.417Z,100037.70
2023-07-31T04:54:30.114Z,100043.54
2023-07-31T04:56:42.777Z,100045.23
2023-07-31T04:58:55.996Z,100043.52
2023-07-31T05:01:08.590Z,100041.15
2023-07-31T05:03:21.318Z,100045.80
2023-07-31T05:05:34.081Z,100042.81
2023-07-31T05:07:46.731Z,100045.75
2023-07-31T05:09:59.355Z,100047.67
2023-07-31T05:12:11.929Z,100046.20
2023-07-31T05:14:24.595Z,100045.80
2023-07-31T05:16:37.348Z,100049.20
2023-07-31T05:18:50.227Z,100045.80
2023-07-31T05:21:03.199Z,100041.89
2023-07-31T05:23:15.803Z,100042.76
2023-07-31T05:25:28.387Z,100042.97
2023-07-31T05:27:41.047Z,100042.77
2023-07-31T05:29:53.661Z,100041.17
2023-07-31T05:34:54.279Z,100048.08
2023-07-31T05:37:07.133Z,100044.68
2023-07-31T05:39:20.800Z,100043.05
2023-07-31T05:41:33.567Z,100046.27
2023-07-31T05:43:46.772Z,100042.38
2023-07-31T05:45:59.405Z,100039.69
2023-07-31T05:48:12.034Z,100036.36
2023-07-31T05:50:24.683Z,100035.30
2023-07-31T05:52:37.325Z,100032.36
2023-07-31T05:54:49.901Z,100034.55
2023-07-31T05:57:02.564Z,100031.66
2023-07-31T05:59:15.175Z,100031.77
2023-07-31T06:01:27.890Z,100030.17
2023-07-31T06:03:40.672Z,100030.61
2023-07-31T06:05:53.320Z,100033.31
2023-07-31T06:08:05.948Z,100027.59
2023-07-31T06:10:18.670Z,100027.88
2023-07-31T06:12:35.187Z,100028.77
2023-07-31T06:14:47.771Z,100026.13
2023-07-31T06:17:00.358Z,100023.40
2023-07-31T06:19:13.040Z,100023.36
2023-07-31T06:21:25.865Z,100024.72
2023-07-31T06:23:38.472Z,100023.78
2023-07-31T06:25:51.100Z,100025.82
2023-07-31T06:28:03.990Z,100025.02
2023-07-31T06:30:16.696Z,100028.16
2023-07-31T06:32:29.749Z,100028.93
2023-07-31T06:34:42.609Z,100030.05
2023-07-31T06:36:55.315Z,100029.43
2023-07-31T06:39:07.977Z,100033.23
2023-07-31T06:41:20.662Z,100035.94
2023-07-31T06:43:33.265Z,100036.11
2023-07-31T06:45:46.943Z,100034.92
2023-07-31T06:48:02.685Z,100031.18
2023-07-31T06:50:15.360Z,100034.36
2023-07-31T06:52:27.988Z,100034.81
2023-07-31T06:54:40.677Z,100036.75
2023-07-31T06:56:53.284Z,100032.32
2023-07-31T06:59:05.904Z,100030.57
2023-07-31T07:01:18.596Z,100028.33
2023-07-31T07:03:31.634Z,100023.41
2023-07-31T07:05:44.299Z,100023.16
2023-07-31T07:07:57.006Z,100024.84
2023-07-31T07:10:10.018Z,100023.21
2023-07-31T07:12:22.634Z,100020.34
2023-07-31T07:14:35.247Z,100017.70
2023-07-31T07:16:52.281Z,100019.88
2023-07-31T07:19:05.581Z,100019.28
2023-07-31T07:21:19.112Z,100018.18
2023-07-31T07:23:32.076Z,100012.25
2023-07-31T07:25:46.158Z,100011.69
2023-07-31T07:27:58.816Z,100013.60
2023-07-31T07:30:11.630Z,100006.79
2023-07-31T07:32:24.304Z,100006.04
2023-07-31T07:34:36.992Z,100007.75
2023-07-31T07:36:50.068Z,100005.88
2023-07-31T07:39:02.746Z,100002.32
2023-07-31T07:41:15.325Z,100006.39
2023-07-31T07:43:27.935Z,100004.00
2023-07-31T07:45:40.528Z,99999.52
2023-07-31T07:47:53.166Z,99998.77
2023-07-31T07:50:08.847Z,99997.88
2023-07-31T07:52:22.577Z,99999.43
2023-07-31T07:54:35.183Z,99993.15
2023-07-31T07:56:47.887Z,99993.41
2023-07-31T07:59:00.535Z,99990.09
2023-07-31T08:01:13.280Z,99983.51
2023-07-31T08:03:25.968Z,99985.44
2023-07-31T08:05:38.693Z,99989.77
2023-07-31T08:07:51.408Z,99986.67
2023-07-31T08:10:04.293Z,99988.16
2023-07-31T08:12:17.007Z,99991.95
2023-07-31T08:14:31.370Z,99993.41
2023-07-31T08:16:45.814Z,99991.96
2023-07-31T08:18:58.612Z,99990.98
2023-07-31T08:21:11.465Z,99986.48
2023-07-31T08:23:24.142Z,99986.05
2023-07-31T08:25:37.333Z,99988.02
2023-07-31T08:27:50.029Z,99989.27
2023-07-31T08:30:02.757Z,99988.70
2023-07-31T08:32:15.558Z,99992.45
2023-07-31T08:34:28.154Z,99999.92
2023-07-31T08:36:41.124Z,100003.23
2023-07-31T08:38:54.099Z,99999.63
2023-07-31T08:41:06.789Z,99997.87
2023-07-31T08:43:20.367Z,99998.88
2023-07-31T08:45:33.561Z,99998.84
2023-07-31T08:47:49.082Z,99996.14
2023-07-31T08:50:03.187Z,99995.78
2023-07-31T08:52:16.001Z,99996.38
2023-07-31T08:54:31.974Z,99994.70
2023-07-31T08:56:45.680Z,99991.13
2023-07-31T08:58:59.634Z,99991.88
2023-07-31T09:01:12.733Z,99991.64
2023-07-31T09:03:27.136Z,99996.66
2023-07-31T09:05:43.740Z,100003.70
2023-07-31T09:07:58.123Z,100002.36
2023-07-31T09:10:11.098Z,99999.12
2023-07-31T09:12:23.907Z,99998.30
2023-07-31T09:14:38.216Z,99992.52
2023-07-31T09:17:01.055Z,100000.54
2023-07-31T09:19:13.893Z,100009.29
2023-07-31T09:21:28.689Z,100007.45
2023-07-31T09:23:46.504Z,100004.71
2023-07-31T09:26:01.574Z,100011.11
2023-07-31T09:28:14.637Z,100011.80
2023-07-31T09:30:27.836Z,100009.97
2023-07-31T09:32:40.573Z,100010.92
2023-07-31T09:34:53.391Z,100014.36
2023-07-31T09:37:06.506Z,100015.95
2023-07-31T09:39:20.924Z,100017.91
2023-07-31T09:41:38.391Z,100021.06
2023-07-31T09:43:55.598Z,100015.79
2023-07-31T09:46:14.983Z,100013.52
2023-07-31T09:48:28.653Z,100013.88
2023-07-31T09:50:43.987Z,100011.85
2023-07-31T09:52:56.600Z,100010.84
2023-07-31T09:55:10.793Z,100008.92
2023-07-31T09:57:24.777Z,100012.33
2023-07-31T09:59:37.876Z,100010.93
2023-07-31T10:01:50.799Z,100010.27
2023-07-31T10:04:05.741Z,100009.52
2023-07-31T10:06:20.482Z,100006.33
2023-07-31T10:08:37.728Z,100004.23
2023-07-31T10:10:50.657Z,100003.84
2023-07-31T10:13:05.021Z,99999.41
2023-07-31T10:15:18.537Z,99999.50
2023-07-31T10:17:34.578Z,99997.88
2023-07-31T10:19:49.116Z,100000.90
2023-07-31T10:22:04.083Z,100006.61
2023-07-31T10:24:17.300Z,100008.68
2023-07-31T10:26:30.439Z,100008.39
2023-07-31T10:28:45.181Z,100005.23
2023-07-31T10:30:58.791Z,100006.52
2023-07-31T10:33:11.995Z,100007.25
2023-07-31T10:35:24.767Z,100004.49
2023-07-31T10:37:38.272Z,99997.56
2023-07-31T10:40:04.553Z,99998.13
2023-07-31T10:42:17.263Z,99993.89
2023-07-31T10:44:29.909Z,99991.86
2023-07-31T10:46:42.768Z,99991.92
2023-07-31T10:49:03.784Z,99988.20
2023-07-31T10:51:18.412Z,99985.66
2023-07-31T10:53:33.433Z,99984.98
2023-07-31T10:55:46.681Z,99982.80
2023-07-31T10:58:13.300Z,99981.64
2023-07-31T11:00:30.474Z,99985.61
2023-07-31T11:02:57.564Z,99977.65
2023-07-31T11:05:10.960Z,99976.10
2023-07-31T11:07:23.615Z,99970.60
2023-07-31T11:09:36.546Z,99968.84
2023-07-31T11:11:51.591Z,99970.47
2023-07-31T11:14:04.202Z,99963.58
2023-07-31T11:16:18.628Z,99957.10
2023-07-31T11:18:31.272Z,99957.82
2023-07-31T11:20:44.341Z,99953.34
2023-07-31T11:23:02.090Z,99943.04
2023-07-31T11:25:15.848Z,99943.27
2023-07-31T11:27:29.954Z,99942.52
2023-07-31T11:29:42.538Z,99938.59
2023-07-31T11:31:55.169Z,99932.83
2023-07-31T11:34:08.527Z,99927.95
2023-07-31T11:36:22.017Z,99920.22
2023-07-31T11:38:35.242Z,99920.40
2023-07-31T11:40:47.847Z,99913.61
2023-07-31T11:43:05.491Z,99912.39
2023-07-31T11:45:18.180Z,99909.14
2023-07-31T11:47:33.342Z,99906.27
2023-07-31T11:49:46.100Z,99905.98
2023-07-31T11:51:58.982Z,99899.41
2023-07-31T11:54:13.891Z,99898.47
2023-07-31T11:56:27.216Z,99901.46
2023-07-31T11:58:41.005Z,99901.82
2023-07-31T12:00:54.163Z,99899.11
2023-07-31T12:03:07.022Z,99895.14
2023-07-31T12:05:20.028Z,99891.80
2023-07-31T12:07:54.261Z,99891.44
2023-07-31T12:10:07.652Z,99886.39
2023-07-31T12:12:24.158Z,99883.58
2023-07-31T12:14:42.948Z,99879.02
2023-07-31T12:16:57.264Z,99875.66
2023-07-31T12:19:10.117Z,99872.45
2023-07-31T12:21:22.894Z,99870.66
2023-07-31T12:23:38.252Z,99866.41
2023-07-31T12:26:04.541Z,99860.33
2023-07-31T12:28:23.303Z,99855.23
2023-07-31T12:30:36.203Z,99848.88
2023-07-31T12:32:49.061Z,99850.37
2023-07-31T12:35:02.770Z,99850.19
2023-07-31T12:37:15.503Z,99845.48
2023-07-31T12:39:30.540Z,99842.09
2023-07-31T12:41:43.393Z,99842.58
2023-07-31T12:43:56.145Z,99844.35
2023-07-31T12:46:09.614Z,99842.23
2023-07-31T12:48:22.443Z,99834.70
2023-07-31T12:50:37.699Z,99828.17
2023-07-31T12:52:50.629Z,99831.80
2023-07-31T12:55:06.162Z,99829.95
2023-07-31T12:57:21.159Z,99823.71
2023-07-31T12:59:33.924Z,99819.52
2023-07-31T13:01:46.809Z,99812.74
2023-07-31T13:04:00.028Z,99811.75
2023-07-31T13:06:13.937Z,99807.64
2023-07-31T13:08:26.732Z,99803.61
2023-07-31T13:10:39.619Z,99805.21
2023-07-31T13:12:52.581Z,99801.91
2023-07-31T13:15:09.454Z,99806.98
2023-07-31T13:17:22.994Z,99800.83
2023-07-31T13:19:36.119Z,99795.66
2023-07-31T13:21:52.448Z,99793.30
2023-07-31T13:24:08.270Z,99784.43
2023-07-31T13:26:23.363Z,99777.42
2023-07-31T13:28:40.661Z,99766.64
2023-07-31T13:30:55.589Z,99771.54
2023-07-31T13:33:29.619Z,99767.08
2023-07-31T13:35:46.086Z,99767.76
2023-07-31T13:37:59.597Z,99766.45
2023-07-31T13:40:15.982Z,99766.35
2023-07-31T13:42:40.249Z,99770.70
2023-07-31T13:44:53.746Z,99772.88
2023-07-31T13:47:06.684Z,99774.02
2023-07-31T13:49:19.408Z,99768.38
2023-07-31T13:51:32.294Z,99771.59
2023-07-31T13:53:44.927Z,99768.85
2023-07-31T13:55:57.720Z,99765.88
2023-07-31T13:58:10.438Z,99769.27
2023-07-31T14:00:23.231Z,99770.80
2023-07-31T14:02:36.618Z,99768.20
2023-07-31T14:04:49.476Z,99769.45
2023-07-31T14:07:02.229Z,99768.59
2023-07-31T14:09:18.531Z,99768.84
2023-07-31T14:11:34.893Z,99767.38
2023-07-31T14:13:47.538Z,99765.16
2023-07-31T14:16:00.243Z,99766.00
2023-07-31T14:18:14.893Z,99766.09
2023-07-31T14:20:34.229Z,99764.70
2023-07-31T14:22:47.296Z,99765.55
2023-07-31T14:25:00.081Z,99769.62
2023-07-31T14:27:12.925Z,99767.36
2023-07-31T14:29:25.651Z,99765.21
2023-07-31T14:31:38.492Z,99765.25
2023-07-31T14:33:51.142Z,99762.41
2023-07-31T14:36:04.117Z,99764.75
2023-07-31T14:38:16.788Z,99766.27
2023-07-31T14:40:29.415Z,99769.81
2023-07-31T14:42:42.078Z,99765.97
2023-07-31T14:44:54.743Z,99771.14
2023-07-31T14:47:07.364Z,99766.95
2023-07-31T14:49:19.987Z,99764.61
2023-07-31T14:51:32.610Z,99760.73
2023-07-31T14:53:45.289Z,99757.70
2023-07-31T14:55:58.272Z,99748.79
2023-07-31T14:58:12.137Z,99745.14
2023-07-31T15:00:27.570Z,99738.42
2023-07-31T15:02:40.764Z,99739.29
2023-07-31T15:04:53.534Z,99740.28
2023-07-31T15:07:06.580Z,99739.77
2023-07-31T15:09:19.230Z,99739.52
2023-07-31T15:11:31.824Z,99743.29
2023-07-31T15:13:44.537Z,99738.47
2023-07-31T15:15:57.437Z,99739.92
2023-07-31T15:18:10.083Z,99741.45
2023-07-31T15:20:22.811Z,99736.83
2023-07-31T15:22:35.398Z,99732.29
2023-07-31T15:24:50.003Z,99735.77
2023-07-31T15:27:03.906Z,99733.85
2023-07-31T15:29:20.630Z,99731.11
2023-07-31T15:31:33.638Z,99731.03
2023-07-31T15:33:46.473Z,99724.39
2023-07-31T15:35:59.328Z,99720.69
2023-07-31T15:38:12.047Z,99717.84
2023-07-31T15:40:24.688Z,99718.36
2023-07-31T15:42:40.718Z,99718.25
2023-07-31T15:44:53.362Z,99710.56
2023-07-31T15:47:06.040Z,99706.95
2023-07-31T15:49:18.832Z,99708.80
2023-07-31T15:51:31.537Z,99707.58
2023-07-31T15:53:44.142Z,99705.61
2023-07-31T15:55:56.999Z,99700.45
2023-07-31T15:58:09.657Z,99701.89
2023-07-31T16:00:22.255Z,99700.73
2023-07-31T16:02:35.912Z,99701.64
2023-07-31T16:04:48.761Z,99701.35
2023-07-31T16:07:01.526Z,99698.98
2023-07-31T16:09:14.224Z,99699.27
2023-07-31T16:11:28.051Z,99695.80
2023-07-31T16:13:40.664Z,99693.71
2023-07-31T16:15:53.267Z,99692.42
2023-07-31T16:18:06.025Z,99684.45
2023-07-31T16:20:19.784Z,99685.77
2023-07-31T16:22:32.405Z,99682.18
2023-07-31T16:24:45.306Z,99682.55
2023-07-31T16:26:57.920Z,99687.11
2023-07-31T16:29:10.572Z,99685.46
2023-07-31T16:31:23.376Z,99686.88
2023-07-31T16:33:37.494Z,99685.93
2023-07-31T16:35:50.328Z,99680.15
2023-07-31T16:38:03.028Z,99683.13
2023-07-31T16:40:15.805Z,99680.61
2023-07-31T16:42:28.539Z,99677.56
2023-07-31T16:44:41.622Z,99674.41
2023-07-31T16:46:54.313Z,99677.41
2023-07-31T16:49:07.192Z,99684.33
2023-07-31T16:51:21.505Z,99684.09
2023-07-31T16:53:35.479Z,99684.65
2023-07-31T16:55:48.154Z,99682.88
2023-07-31T16:58:00.836Z,99671.13
2023-07-31T17:00:13.853Z,99667.84
2023-07-31T17:02:26.533Z,99670.61
2023-07-31T17:04:39.343Z,99674.06
2023-07-31T17:06:51.973Z,99668.84
2023-07-31T17:09:04.805Z,99667.15
2023-07-31T17:11:17.456Z,99664.58
2023-07-31T17:13:30.090Z,99665.91
2023-07-31T17:15:42.874Z,99670.86
2023-07-31T17:17:55.657Z,99671.50
2023-07-31T17:20:08.980Z,99665.45
2023-07-31T17:22:28.503Z,99669.45
2023-07-31T17:24:47.681Z,99671.21
2023-07-31T17:27:00.466Z,99669.19
2023-07-31T17:29:17.956Z,99667.73
2023-07-31T17:31:31.599Z,99669.00
2023-07-31T17:33:44.305Z,99665.55
2023-07-31T17:35:56.935Z,99667.02
2023-07-31T17:38:09.559Z,99662.58
2023-07-31T17:40:22.223Z,99667.80
2023-07-31T17:42:35.217Z,99662.39
2023-07-31T17:44:47.829Z,99665.20
2023-07-31T17:47:00.683Z,99663.80
2023-07-31T17:49:13.299Z,99660.46
2023-07-31T17:51:26.176Z,99661.75
2023-07-31T17:53:38.827Z,99661.30
2023-07-31T17:55:51.729Z,99665.27
2023-07-31T17:58:04.510Z,99669.22
2023-07-31T18:00:17.198Z,99675.10
2023-07-31T18:02:30.797Z,99678.27
2023-07-31T18:04:43.804Z,99680.91
2023-07-31T18:06:56.585Z,99678.02
2023-07-31T18:09:10.223Z,99680.65
2023-07-31T18:11:23.704Z,99681.66
2023-07-31T18:13:36.341Z,99683.10
2023-07-31T18:15:49.009Z,99679.83
2023-07-31T18:18:01.684Z,99684.08
2023-07-31T18:20:14.406Z,99676.62
2023-07-31T18:22:27.062Z,99680.29
2023-07-31T18:24:39.705Z,99681.62
2023-07-31T18:26:52.398Z,99682.25
2023-07-31T18:29:05.261Z,99681.53
2023-07-31T18:31:18.023Z,99677.55
2023-07-31T18:33:30.778Z,99675.08
2023-07-31T18:35:43.402Z,99671.91
2023-07-31T18:37:56.050Z,99670.83
2023-07-31T18:40:09.294Z,99666.84
2023-07-31T18:42:21.968Z,99660.48
2023-07-31T18:44:34.783Z,99656.80
2023-07-31T18:46:47.459Z,99651.63
2023-07-31T18:49:00.092Z,99651.56
2023-07-31T18:51:12.967Z,99647.85
2023-07-31T18:53:25.945Z,99647.59
2023-07-31T18:55:43.206Z,99647.74
2023-07-31T18:57:55.949Z,99648.98
2023-07-31T19:00:10.923Z,99652.95
2023-07-31T19:02:23.632Z,99650.30
2023-07-31T19:04:36.687Z,99643.83
2023-07-31T19:06:49.322Z,99645.14
2023-07-31T19:09:02.555Z,99648.52
2023-07-31T19:11:28.458Z,99647.12
2023-07-31T19:13:46.126Z,99643.67
2023-07-31T19:15:58.906Z,99643.40
2023-07-31T19:18:11.648Z,99647.94
2023-07-31T19:20:24.294Z,99642.25
2023-07-31T19:22:36.938Z,99636.80
2023-07-31T19:24:49.572Z,99639.15
2023-07-31T19:27:03.972Z,99633.98
2023-07-31T19:29:16.689Z,99629.14
2023-07-31T19:31:29.379Z,99629.20
2023-07-31T19:33:42.132Z,99628.00
2023-07-31T19:35:59.460Z,99625.95
2023-07-31T19:38:12.277Z,99618.07
2023-07-31T19:40:26.516Z,99619.60
2023-07-31T19:42:39.194Z,99620.72
2023-07-31T19:44:51.888Z,99617.89
2023-07-31T19:47:06.047Z,99616.84
2023-07-31T19:49:19.141Z,99617.41
2023-07-31T19:51:31.967Z,99615.63
2023-07-31T19:53:44.622Z,99615.86
2023-07-31T19:55:58.516Z,99607.88
2023-07-31T19:58:11.188Z,99606.67
2023-07-31T20:00:23.888Z,99600.55
2023-07-31T20:02:38.755Z,99600.60
2023-07-31T20:04:51.994Z,99596.69
2023-07-31T20:07:05.017Z,99596.80
2023-07-31T20:09:17.899Z,99597.05
2023-07-31T20:11:31.364Z,99598.08
2023-07-31T20:13:44.040Z,99591.55
2023-07-31T20:15:56.712Z,99592.10
2023-07-31T20:18:09.395Z,99587.75
2023-07-31T20:20:22.259Z,99587.77
2023-07-31T20:22:34.970Z,99583.73
2023-07-31T20:24:47.718Z,99579.18
2023-07-31T20:27:00.411Z,99575.98
2023-07-31T20:29:13.076Z,99574.54
2023-07-31T20:31:25.716Z,99572.06
2023-07-31T20:33:38.496Z,99570.41
2023-07-31T20:35:51.137Z,99567.05
2023-07-31T20:38:04.675Z,99562.30
2023-07-31T20:40:17.369Z,99559.86
2023-07-31T20:42:30.390Z,99555.27
2023-07-31T20:44:43.110Z,99553.35
2023-07-31T20:46:55.872Z,99550.86
2023-07-31T20:49:08.794Z,99547.25
2023-07-31T20:51:21.673Z,99541.79
2023-07-31T20:53:34.314Z,99538.63
2023-07-31T20:55:48.115Z,99539.24
2023-07-31T20:58:00.846Z,99538.21
2023-07-31T21:00:15.768Z,99536.42
2023-07-31T21:02:28.601Z,99536.05
2023-07-31T21:04:41.592Z,99529.38
2023-07-31T21:06:54.224Z,99529.98
2023-07-31T21:09:06.927Z,99530.27
2023-07-31T21:11:19.840Z,99532.09
2023-07-31T21:13:32.610Z,99530.95
2023-07-31T21:15:46.073Z,99529.02
2023-07-31T21:17:59.813Z,99525.36
2023-07-31T21:20:13.587Z,99524.14
2023-07-31T21:22:26.763Z,99523.80
2023-07-31T21:24:39.418Z,99520.73
2023-07-31T21:26:52.113Z,99520.90
2023-07-31T21:29:04.791Z,99521.51
2023-07-31T21:31:17.547Z,99522.27
2023-07-31T21:33:31.961Z,99521.83
2023-07-31T21:35:44.592Z,99519.13
2023-07-31T21:37:57.301Z,99522.05
2023-07-31T21:40:10.768Z,99514.34
2023-07-31T21:42:23.502Z,99513.53
2023-07-31T21:44:36.374Z,99508.20
2023-07-31T21:46:49.032Z,99507.73
2023-07-31T21:49:01.720Z,99505.77
2023-07-31T21:51:14.360Z,99504.08
2023-07-31T21:53:27.165Z,99505.13
2023-07-31T21:55:39.875Z,99504.55
2023-07-31T21:57:52.606Z,99498.23
2023-07-31T22:00:06.149Z,99497.72
2023-07-31T22:02:18.922Z,99496.90
2023-07-31T22:04:31.578Z,99492.64
2023-07-31T22:06:44.221Z,99496.87
2023-07-31T22:08:56.885Z,99497.79
2023-07-31T22:11:09.546Z,99493.77
2023-07-31T22:13:22.263Z,99491.93
2023-07-31T22:15:34.839Z,99490.39
2023-07-31T22:17:47.485Z,99484.20
2023-07-31T22:20:00.330Z,99478.93
2023-07-31T22:22:13.159Z,99473.82
2023-07-31T22:24:25.789Z,99473.53
2023-07-31T22:26:38.721Z,99473.25
2023-07-31T22:28:51.679Z,99469.48
2023-07-31T22:31:04.385Z,99467.48
2023-07-31T22:33:17.052Z,99465.48
2023-07-31T22:35:29.796Z,99455.41
2023-07-31T22:37:42.588Z,99450.27
2023-07-31T22:39:55.240Z,99445.85
2023-07-31T22:42:07.846Z,99442.88
2023-07-31T22:44:20.469Z,99438.35
2023-07-31T22:46:33.176Z,99441.38
2023-07-31T22:48:45.820Z,99439.41
2023-07-31T22:50:58.556Z,99437.19
2023-07-31T22:53:11.216Z,99434.13
2023-07-31T22:55:23.789Z,99436.54
2023-07-31T22:57:36.435Z,99434.58
2023-07-31T22:59:49.055Z,99435.44
2023-07-31T23:02:01.826Z,99436.04
2023-07-31T23:04:14.902Z,99433.61
2023-07-31T23:06:27.522Z,99434.92
2023-07-31T23:08:40.162Z,99434.68
2023-07-31T23:10:52.899Z,99431.59
2023-07-31T23:13:05.574Z,99437.25
2023-07-31T23:15:18.348Z,99435.21
2023-07-31T23:17:31.012Z,99431.35
2023-07-31T23:19:43.742Z,99431.88
2023-07-31T23:21:56.389Z,99426.23
2023-07-31T23:24:09.778Z,99424.55
2023-07-31T23:26:22.384Z,99417.73
2023-07-31T23:28:35.070Z,99418.26
2023-07-31T23:30:49.075Z,99412.50
2023-07-31T23:33:01.755Z,99411.72
2023-07-31T23:35:14.597Z,99405.14
2023-07-31T23:37:27.195Z,99403.11
2023-07-31T23:39:39.878Z,99398.96
2023-07-31T23:41:52.674Z,99396.81
2023-07-31T23:44:05.489Z,99389.91
2023-07-31T23:46:18.192Z,99386.92
2023-07-31T23:48:30.796Z,99384.45
2023-07-31T23:50:43.474Z,99380.77
2023-07-31T23:52:56.977Z,99379.92
2023-07-31T23:55:10.513Z,99372.71
2023-07-31T23:57:23.242Z,99368.65
2023-07-31T23:59:35.885Z,99368.02
